createdAt,value
2019-05-25T00:02:55.385Z,12.70
2019-05-25T00:07:59.160Z,10.40
2019-05-25T00:13:02.770Z,10.47
2019-05-25T00:18:07.137Z,12.53
2019-05-25T00:23:10.864Z,11.87
2019-05-25T00:28:14.471Z,12.83
2019-05-25T00:33:18.145Z,16.87
2019-05-25T00:38:21.785Z,15.97
2019-05-25T00:43:25.792Z,12.20
2019-05-25T00:48:29.794Z,12.30
2019-05-25T00:53:33.461Z,12.17
2019-05-25T00:58:37.472Z,11.13
2019-05-25T01:03:41.134Z,11.27
2019-05-25T01:08:45.226Z,12.17
2019-05-25T01:13:48.820Z,12.73
2019-05-25T01:18:52.713Z,10.87
2019-05-25T01:23:56.681Z,11.80
2019-05-25T01:29:00.353Z,12.37
2019-05-25T01:34:04.082Z,11.80
2019-05-25T01:39:08.015Z,12.27
2019-05-25T01:44:11.687Z,13.10
2019-05-25T01:49:15.638Z,12.83
2019-05-25T01:54:19.228Z,12.67
2019-05-25T01:59:23.064Z,13.00
2019-05-25T02:04:27.093Z,13.13
2019-05-25T02:09:30.761Z,11.20
2019-05-25T02:14:34.439Z,12.33
2019-05-25T02:19:38.052Z,11.43
2019-05-25T02:24:42.032Z,11.43
2019-05-25T02:29:46.032Z,14.87
2019-05-25T02:34:50.107Z,13.97
2019-05-25T02:39:53.709Z,12.93
2019-05-25T02:44:57.641Z,13.57
2019-05-25T02:50:01.351Z,13.43
2019-05-25T02:55:07.465Z,12.70
2019-05-25T03:00:13.048Z,14.90
2019-05-25T03:05:17.254Z,14.37
2019-05-25T03:10:20.998Z,12.47
2019-05-25T03:15:24.766Z,11.57
2019-05-25T03:20:28.721Z,13.03
2019-05-25T03:25:32.435Z,13.57
2019-05-25T03:30:37.840Z,14.10
2019-05-25T03:35:41.501Z,13.67
2019-05-25T03:40:45.108Z,12.50
2019-05-25T03:45:49.055Z,15.40
2019-05-25T03:50:52.755Z,14.33
2019-05-25T03:56:05.328Z,14.63
2019-05-25T04:01:01.589Z,15.50
2019-05-25T04:06:05.326Z,15.23
2019-05-25T04:11:08.993Z,13.17
2019-05-25T04:16:12.589Z,13.50
2019-05-25T04:21:16.257Z,13.40
2019-05-25T04:26:22.729Z,16.30
2019-05-25T04:31:25.162Z,15.67
2019-05-25T04:36:28.775Z,17.70
2019-05-25T04:41:32.474Z,13.90
2019-05-25T04:46:36.205Z,14.83
2019-05-25T04:51:39.867Z,14.50
2019-05-25T04:56:43.591Z,15.37
2019-05-25T05:01:47.621Z,14.87
2019-05-25T05:06:51.259Z,15.20
2019-05-25T05:11:55.270Z,14.20
2019-05-25T05:16:58.871Z,14.47
2019-05-25T05:22:05.576Z,13.47
2019-05-25T05:27:08.086Z,13.10
2019-05-25T05:32:26.350Z,11.70
2019-05-25T05:37:18.364Z,14.77
2019-05-25T05:42:24.241Z,14.70
2019-05-25T05:47:31.032Z,15.87
2019-05-25T05:52:38.896Z,13.70
2019-05-25T05:57:42.559Z,13.00
2019-05-25T06:02:46.150Z,16.47
2019-05-25T06:07:49.864Z,10.77
2019-05-25T06:12:53.488Z,14.23
2019-05-25T06:17:57.083Z,13.30
2019-05-25T06:23:00.686Z,13.77
2019-05-25T06:28:04.536Z,11.43
2019-05-25T06:33:08.144Z,15.93
2019-05-25T06:38:11.810Z,13.57
2019-05-25T06:43:15.476Z,12.83
2019-05-25T06:48:19.984Z,12.10
2019-05-25T06:53:23.786Z,12.77
2019-05-25T06:58:27.345Z,11.33
2019-05-25T07:03:31.080Z,13.43
2019-05-25T07:08:35.165Z,12.47
2019-05-25T07:13:39.056Z,13.30
2019-05-25T07:18:42.705Z,15.50
2019-05-25T07:23:46.404Z,11.93
2019-05-25T07:28:50.333Z,14.97
2019-05-25T07:33:54.069Z,13.63
2019-05-25T07:38:57.672Z,14.00
2019-05-25T07:44:01.310Z,12.60
2019-05-25T07:49:05.277Z,16.33
2019-05-25T07:54:10.062Z,15.93
2019-05-25T07:59:13.741Z,15.83
2019-05-25T08:04:17.338Z,16.10
2019-05-25T08:09:21.106Z,16.03
2019-05-25T08:14:24.752Z,13.03
2019-05-25T08:19:28.346Z,15.00
2019-05-25T08:24:32.048Z,15.20
2019-05-25T08:29:35.646Z,14.00
2019-05-25T08:34:39.246Z,15.00
2019-05-25T08:39:43.362Z,16.27
2019-05-25T08:44:47.181Z,14.23
2019-05-25T08:49:51.087Z,14.13
2019-05-25T08:54:56.713Z,14.17
2019-05-25T08:59:59.997Z,13.90
2019-05-25T09:05:05.749Z,17.40
2019-05-25T09:10:10.185Z,13.47
2019-05-25T09:15:14.200Z,12.70
2019-05-25T09:20:18.212Z,13.13
2019-05-25T09:25:21.817Z,13.53
2019-05-25T09:30:25.564Z,14.83
2019-05-25T09:35:29.634Z,14.73
2019-05-25T09:40:33.290Z,14.00
2019-05-25T09:45:36.988Z,16.00
2019-05-25T09:50:40.541Z,14.60
2019-05-25T09:55:44.188Z,15.63
2019-05-25T10:00:47.933Z,17.87
2019-05-25T10:05:51.681Z,17.07
2019-05-25T10:10:55.765Z,17.20
2019-05-25T10:15:59.818Z,15.30
2019-05-25T10:21:03.555Z,18.03
2019-05-25T10:26:07.219Z,17.57
2019-05-25T10:31:12.961Z,15.30
2019-05-25T10:36:17.194Z,13.60
2019-05-25T10:41:23.066Z,15.13
2019-05-25T10:46:35.349Z,15.13
2019-05-25T10:51:39.576Z,15.63
2019-05-25T10:56:43.458Z,14.23
2019-05-25T11:01:47.066Z,16.20
2019-05-25T11:06:50.759Z,14.13
2019-05-25T11:11:54.691Z,13.47
2019-05-25T11:16:58.295Z,15.70
2019-05-25T11:22:01.958Z,13.07
2019-05-25T11:27:05.637Z,16.07
2019-05-25T11:32:09.294Z,15.23
2019-05-25T11:37:15.570Z,19.73
2019-05-25T11:42:19.658Z,15.30
2019-05-25T11:47:23.350Z,20.10
2019-05-25T11:52:27.407Z,17.77
2019-05-25T11:57:31.014Z,22.07
2019-05-25T12:02:35.078Z,23.73
2019-05-25T12:07:38.884Z,26.40
2019-05-25T12:12:42.972Z,26.57
2019-05-25T12:17:46.911Z,26.83
2019-05-25T12:22:50.769Z,25.50
2019-05-25T12:27:54.425Z,24.00
2019-05-25T12:32:58.521Z,26.17
2019-05-25T12:38:02.208Z,29.17
2019-05-25T12:43:05.880Z,27.33
2019-05-25T12:48:09.997Z,23.50
2019-05-25T12:53:13.669Z,23.63
2019-05-25T12:58:17.636Z,19.87
2019-05-25T13:03:21.226Z,22.37
2019-05-25T13:08:24.827Z,20.47
2019-05-25T13:13:28.422Z,18.57
2019-05-25T13:18:33.258Z,13.13
2019-05-25T13:23:36.852Z,11.23
2019-05-25T13:28:40.452Z,10.97
2019-05-25T13:33:44.090Z,16.93
2019-05-25T13:38:47.798Z,12.30
2019-05-25T13:43:51.385Z,12.17
2019-05-25T13:48:54.991Z,12.30
2019-05-25T13:53:58.649Z,10.53
2019-05-25T13:59:02.359Z,9.13
2019-05-25T14:04:06.204Z,9.33
2019-05-25T14:09:09.825Z,11.00
2019-05-25T14:14:13.417Z,12.33
2019-05-25T14:19:17.087Z,9.73
2019-05-25T14:24:21.187Z,9.17
2019-05-25T14:29:26.266Z,7.63
2019-05-25T14:34:30.244Z,6.93
2019-05-25T14:39:33.903Z,7.80
2019-05-25T14:44:37.511Z,7.37
2019-05-25T14:49:41.207Z,9.63
2019-05-25T14:54:45.153Z,7.40
2019-05-25T14:59:48.821Z,7.97
2019-05-25T15:04:52.666Z,8.63
2019-05-25T15:09:56.405Z,8.03
2019-05-25T15:14:59.987Z,8.57
2019-05-25T15:20:09.625Z,10.27
2019-05-25T15:25:13.679Z,8.73
2019-05-25T15:30:19.086Z,7.17
2019-05-25T15:35:22.733Z,9.10
2019-05-25T15:40:26.476Z,9.90
2019-05-25T15:45:30.256Z,9.57
2019-05-25T15:50:34.070Z,8.73
2019-05-25T15:55:37.661Z,9.97
2019-05-25T16:00:46.865Z,10.20
2019-05-25T16:05:50.823Z,8.47
2019-05-25T16:10:54.957Z,11.20
2019-05-25T16:15:58.685Z,8.97
2019-05-25T16:21:02.281Z,8.57
2019-05-25T16:26:05.869Z,9.33
2019-05-25T16:31:09.471Z,9.03
2019-05-25T16:36:13.052Z,8.77
2019-05-25T16:41:16.881Z,9.97
2019-05-25T16:46:20.543Z,9.80
2019-05-25T16:51:24.302Z,10.60
2019-05-25T16:56:28.004Z,11.80
2019-05-25T17:01:47.060Z,9.00
2019-05-25T17:06:36.913Z,12.60
2019-05-25T17:11:40.874Z,11.33
2019-05-25T17:16:44.479Z,10.53
2019-05-25T17:21:48.394Z,11.63
2019-05-25T17:26:51.988Z,13.07
2019-05-25T17:31:55.588Z,18.60
2019-05-25T17:36:59.260Z,13.97
2019-05-25T17:42:02.940Z,11.20
2019-05-25T17:47:06.974Z,11.97
2019-05-25T17:52:11.097Z,17.97
2019-05-25T17:57:14.775Z,12.57
2019-05-25T18:02:18.938Z,10.30
2019-05-25T18:07:22.603Z,10.83
2019-05-25T18:12:26.340Z,12.13
2019-05-25T18:17:30.292Z,9.73
2019-05-25T18:22:33.885Z,13.20
2019-05-25T18:27:37.553Z,12.70
2019-05-25T18:32:41.186Z,11.23
2019-05-25T18:37:45.193Z,12.13
2019-05-25T18:48:17.178Z,16.33
2019-05-25T18:53:20.845Z,13.00
2019-05-25T18:58:26.485Z,14.90
2019-05-25T19:03:29.991Z,10.50
2019-05-25T19:08:33.586Z,16.07
2019-05-25T19:13:37.664Z,13.03
2019-05-25T19:18:41.266Z,14.70
2019-05-25T19:23:45.031Z,17.70
2019-05-25T19:28:48.733Z,14.43
2019-05-25T19:33:52.415Z,12.30
2019-05-25T19:38:56.499Z,12.27
2019-05-25T19:44:00.174Z,14.67
2019-05-25T19:49:04.387Z,13.23
2019-05-25T19:54:08.114Z,12.30
2019-05-25T19:59:13.194Z,13.73
2019-05-25T20:04:17.221Z,15.60
2019-05-25T20:09:21.173Z,15.10
2019-05-25T20:14:24.920Z,12.70
2019-05-25T20:19:28.745Z,12.77
2019-05-25T20:24:36.828Z,12.53
2019-05-25T20:29:40.506Z,14.20
2019-05-25T20:34:45.847Z,13.80
2019-05-25T20:39:49.663Z,14.40
2019-05-25T20:44:53.344Z,11.93
2019-05-25T20:49:57.121Z,12.80
2019-05-25T20:55:01.017Z,16.73
2019-05-25T21:00:06.047Z,15.63
2019-05-25T21:05:09.791Z,12.77
2019-05-25T21:10:13.827Z,13.13
2019-05-25T21:15:17.703Z,17.70
2019-05-25T21:20:21.988Z,15.97
2019-05-25T21:25:26.448Z,16.60
2019-05-25T21:30:30.261Z,22.33
2019-05-25T21:35:34.271Z,12.33
2019-05-25T21:40:41.814Z,16.10
2019-05-25T21:45:47.374Z,12.37
2019-05-25T21:50:51.103Z,30.23
2019-05-25T21:55:54.715Z,17.23
2019-05-25T22:00:58.619Z,18.17
2019-05-25T22:06:02.369Z,13.00
2019-05-25T22:11:06.164Z,27.43
2019-05-25T22:16:09.831Z,25.27
2019-05-25T22:21:13.514Z,21.70
2019-05-25T22:26:17.278Z,13.60
2019-05-25T22:31:20.978Z,12.73
2019-05-25T22:36:39.232Z,15.30
2019-05-25T22:41:30.527Z,14.53
2019-05-25T22:46:34.753Z,20.80
2019-05-25T22:51:38.268Z,14.17
2019-05-25T22:56:41.964Z,13.57
2019-05-25T23:01:45.716Z,13.10
2019-05-25T23:06:57.941Z,15.57
2019-05-25T23:12:14.389Z,16.83
2019-05-25T23:17:18.002Z,17.37
2019-05-25T23:22:21.595Z,15.60
2019-05-25T23:27:25.187Z,13.50
2019-05-25T23:32:28.798Z,16.67
2019-05-25T23:37:32.393Z,13.77
2019-05-25T23:42:35.981Z,16.67
2019-05-25T23:47:39.582Z,16.63
2019-05-25T23:52:43.181Z,13.90
2019-05-25T23:57:46.808Z,13.53
